sensor_id;sensor_type;location;lat;lon;timestamp;pressure;altitude;pressure_sealevel;temperature
74043;BMP280;62384;53.600;10.040;2023-09-19T00:00:12;20864.13;;;17.66
74043;BMP280;62384;53.600;10.040;2023-09-19T00:02:46;20188.78;;;17.67
74043;BMP280;62384;53.600;10.040;2023-09-19T00:05:17;20863.22;;;17.62
74043;BMP280;62384;53.600;10.040;2023-09-19T00:07:42;20188.22;;;17.65
74043;BMP280;62384;53.600;10.040;2023-09-19T00:10:07;18498.31;;;17.57
74043;BMP280;62384;53.600;10.040;2023-09-19T00:12:34;17823.22;;;17.57
74043;BMP280;62384;53.600;10.040;2023-09-19T00:15:00;18498.41;;;17.58
74043;BMP280;62384;53.600;10.040;2023-09-19T00:17:26;17823.31;;;17.57
74043;BMP280;62384;53.600;10.040;2023-09-19T00:19:52;17486.13;;;17.59
74043;BMP280;62384;53.600;10.040;2023-09-19T00:22:18;15798.66;;;17.53
74043;BMP280;62384;53.600;10.040;2023-09-19T00:25:08;16135.50;;;17.51
74043;BMP280;62384;53.600;10.040;2023-09-19T00:27:35;13775.22;;;17.44
74043;BMP280;62384;53.600;10.040;2023-09-19T00:30:00;16135.66;;;17.52
74043;BMP280;62384;53.600;10.040;2023-09-19T00:32:27;15462.41;;;17.60
74043;BMP280;62384;53.600;10.040;2023-09-19T00:34:57;14449.72;;;17.49
74043;BMP280;62384;53.600;10.040;2023-09-19T00:37:22;15461.28;;;17.52
74043;BMP280;62384;53.600;10.040;2023-09-19T00:39:47;16471.72;;;17.44
74043;BMP280;62384;53.600;10.040;2023-09-19T00:42:22;15797.94;;;17.48
74043;BMP280;62384;53.600;10.040;2023-09-19T00:44:50;16135.59;;;17.51
74043;BMP280;62384;53.600;10.040;2023-09-19T00:47:19;16810.03;;;17.51
74043;BMP280;62384;53.600;10.040;2023-09-19T00:49:47;16810.19;;;17.52
74043;BMP280;62384;53.600;10.040;2023-09-19T00:52:18;16472.19;;;17.47
74043;BMP280;62384;53.600;10.040;2023-09-19T00:54:47;16471.16;;;17.41
74043;BMP280;62384;53.600;10.040;2023-09-19T00:57:13;15797.78;;;17.47
74043;BMP280;62384;53.600;10.040;2023-09-19T00:59:50;18834.72;;;17.51
74043;BMP280;62384;53.600;10.040;2023-09-19T01:02:28;18497.47;;;17.53
74043;BMP280;62384;53.600;10.040;2023-09-19T01:04:57;16808.97;;;17.44
74043;BMP280;62384;53.600;10.040;2023-09-19T01:07:22;18159.78;;;17.52
74043;BMP280;62384;53.600;10.040;2023-09-19T01:09:48;19848.31;;;17.55
74043;BMP280;62384;53.600;10.040;2023-09-19T01:12:30;20186.38;;;17.56
74043;BMP280;62384;53.600;10.040;2023-09-19T01:15:03;18160.16;;;17.54
74043;BMP280;62384;53.600;10.040;2023-09-19T01:17:42;16808.63;;;17.42
74043;BMP280;62384;53.600;10.040;2023-09-19T01:20:36;17484.81;;;17.51
74043;BMP280;62384;53.600;10.040;2023-09-19T01:31:49;18159.03;;;17.48
74043;BMP280;62384;53.600;10.040;2023-09-19T01:34:14;20183.63;;;17.44
74043;BMP280;62384;53.600;10.040;2023-09-19T01:36:39;21197.56;;;17.47
74043;BMP280;62384;53.600;10.040;2023-09-19T01:39:15;24579.06;;;17.51
74043;BMP280;62384;53.600;10.040;2023-09-19T01:42:05;30334.56;;;17.48
74043;BMP280;62384;53.600;10.040;2023-09-19T01:47:51;47130.03;;;17.54
74043;BMP280;62384;53.600;10.040;2023-09-19T01:50:31;48518.91;;;17.58
74043;BMP280;62384;53.600;10.040;2023-09-19T01:53:07;46153.84;;;17.48
74043;BMP280;62384;53.600;10.040;2023-09-19T01:55:41;45467.31;;;17.53
74043;BMP280;62384;53.600;10.040;2023-09-19T01:58:16;41879.31;;;17.42
74043;BMP280;62384;53.600;10.040;2023-09-19T02:00:43;47912.09;;;17.48
74043;BMP280;62384;53.600;10.040;2023-09-19T02:03:11;53876.25;;;17.43
74043;BMP280;62384;53.600;10.040;2023-09-19T02:05:39;54255.03;;;17.39
74043;BMP280;62384;53.600;10.040;2023-09-19T02:08:05;52609.84;;;17.31
74043;BMP280;62384;53.600;10.040;2023-09-19T02:10:30;50526.63;;;17.28
74043;BMP280;62384;53.600;10.040;2023-09-19T02:12:55;48871.06;;;17.20
74043;BMP280;62384;53.600;10.040;2023-09-19T02:15:24;48167.72;;;17.20
74043;BMP280;62384;53.600;10.040;2023-09-19T02:17:50;46699.00;;;17.18
74043;BMP280;62384;53.600;10.040;2023-09-19T02:20:15;42614.03;;;17.16
74043;BMP280;62384;53.600;10.040;2023-09-19T02:22:42;38123.91;;;17.14
74043;BMP280;62384;53.600;10.040;2023-09-19T02:25:07;34390.41;;;17.16
74043;BMP280;62384;53.600;10.040;2023-09-19T02:27:38;31339.22;;;17.17
74043;BMP280;62384;53.600;10.040;2023-09-19T02:30:05;26934.13;;;17.09
74043;BMP280;62384;53.600;10.040;2023-09-19T02:32:33;24903.03;;;17.02
74043;BMP280;62384;53.600;10.040;2023-09-19T02:35:01;22875.44;;;17.02
74043;BMP280;62384;53.600;10.040;2023-09-19T02:37:27;21185.50;;;16.95
74043;BMP280;62384;53.600;10.040;2023-09-19T02:39:52;21862.25;;;17.02
74043;BMP280;62384;53.600;10.040;2023-09-19T02:42:21;21187.03;;;17.02
74043;BMP280;62384;53.600;10.040;2023-09-19T02:44:49;21525.34;;;17.05
74043;BMP280;62384;53.600;10.040;2023-09-19T02:47:14;22539.19;;;17.08
74043;BMP280;62384;53.600;10.040;2023-09-19T02:49:41;22199.56;;;17.00
74043;BMP280;62384;53.600;10.040;2023-09-19T02:52:07;22200.69;;;17.05
74043;BMP280;62384;53.600;10.040;2023-09-19T02:54:33;20849.25;;;17.00
74043;BMP280;62384;53.600;10.040;2023-09-19T02:56:58;20174.25;;;17.00
74043;BMP280;62384;53.600;10.040;2023-09-19T02:59:26;20510.38;;;16.94
74043;BMP280;62384;53.600;10.040;2023-09-19T03:01:51;21860.78;;;16.95
74043;BMP280;62384;53.600;10.040;2023-09-19T03:04:22;23888.84;;;17.01
74043;BMP280;62384;53.600;10.040;2023-09-19T03:06:53;25242.59;;;17.07
74043;BMP280;62384;53.600;10.040;2023-09-19T03:09:23;27269.97;;;17.01
74043;BMP280;62384;53.600;10.040;2023-09-19T03:11:51;24562.84;;;16.94
74043;BMP280;62384;53.600;10.040;2023-09-19T03:14:16;25915.94;;;16.97
74043;BMP280;62384;53.600;10.040;2023-09-19T03:16:45;26930.69;;;16.98
74043;BMP280;62384;53.600;10.040;2023-09-19T03:19:10;28622.72;;;16.98
74043;BMP280;62384;53.600;10.040;2023-09-19T03:21:37;30991.66;;;16.95
74043;BMP280;62384;53.600;10.040;2023-09-19T03:24:04;34043.38;;;16.98
74043;BMP280;62384;53.600;10.040;2023-09-19T03:26:29;37776.63;;;16.98
74043;BMP280;62384;53.600;10.040;2023-09-19T03:28:54;39816.03;;;17.00
74043;BMP280;62384;53.600;10.040;2023-09-19T03:31:20;45849.97;;;17.01
74043;BMP280;62384;53.600;10.040;2023-09-19T03:33:45;44276.22;;;16.94
74043;BMP280;62384;53.600;10.040;2023-09-19T03:36:10;42749.72;;;16.97
74043;BMP280;62384;53.600;10.040;2023-09-19T03:38:38;40831.34;;;16.92
74043;BMP280;62384;53.600;10.040;2023-09-19T03:41:03;40152.09;;;16.93
74043;BMP280;62384;53.600;10.040;2023-09-19T03:43:32;36411.59;;;16.84
74043;BMP280;62384;53.600;10.040;2023-09-19T03:46:01;38790.91;;;16.89
74043;BMP280;62384;53.600;10.040;2023-09-19T03:48:30;39130.59;;;16.89
74043;BMP280;62384;53.600;10.040;2023-09-19T03:51:02;40144.22;;;16.79
74043;BMP280;62384;53.600;10.040;2023-09-19T03:53:27;40823.84;;;16.79
74043;BMP280;62384;53.600;10.040;2023-09-19T03:55:52;42955.28;;;16.76
74043;BMP280;62384;53.600;10.040;2023-09-19T03:58:17;47625.69;;;16.73
74043;BMP280;62384;53.600;10.040;2023-09-19T04:00:43;46245.47;;;16.70
74043;BMP280;62384;53.600;10.040;2023-09-19T04:03:14;49055.59;;;16.62
74043;BMP280;62384;53.600;10.040;2023-09-19T04:05:47;47515.25;;;16.59
74043;BMP280;62384;53.600;10.040;2023-09-19T04:08:17;53678.00;;;16.37
74043;BMP280;62384;53.600;10.040;2023-09-19T04:10:45;58609.31;;;16.45
74043;BMP280;62384;53.600;10.040;2023-09-19T04:13:13;59817.13;;;16.45
74043;BMP280;62384;53.600;10.040;2023-09-19T04:15:41;60165.06;;;16.37
74043;BMP280;62384;53.600;10.040;2023-09-19T04:18:07;62484.09;;;16.33
74043;BMP280;62384;53.600;10.040;2023-09-19T04:20:32;60955.22;;;16.21
74043;BMP280;62384;53.600;10.040;2023-09-19T04:22:57;63319.41;;;16.22
74043;BMP280;62384;53.600;10.040;2023-09-19T04:25:25;65895.56;;;16.08
74043;BMP280;62384;53.600;10.040;2023-09-19T04:27:52;66373.63;;;16.18
74043;BMP280;62384;53.600;10.040;2023-09-19T04:30:17;67217.28;;;16.07
74043;BMP280;62384;53.600;10.040;2023-09-19T04:32:42;67300.75;;;16.08
74043;BMP280;62384;53.600;10.040;2023-09-19T04:35:15;66944.38;;;15.99
74043;BMP280;62384;53.600;10.040;2023-09-19T04:37:41;66687.44;;;15.99
74043;BMP280;62384;53.600;10.040;2023-09-19T04:40:10;66969.66;;;15.98
74043;BMP280;62384;53.600;10.040;2023-09-19T04:42:40;67473.47;;;15.90
74043;BMP280;62384;53.600;10.040;2023-09-19T04:45:06;67702.66;;;15.89
74043;BMP280;62384;53.600;10.040;2023-09-19T04:47:32;67774.50;;;15.81
74043;BMP280;62384;53.600;10.040;2023-09-19T04:50:00;67331.91;;;15.80
74043;BMP280;62384;53.600;10.040;2023-09-19T04:52:30;68155.22;;;15.79
74043;BMP280;62384;53.600;10.040;2023-09-19T04:54:56;67960.34;;;15.71
74043;BMP280;62384;53.600;10.040;2023-09-19T04:57:21;67238.84;;;15.72
74043;BMP280;62384;53.600;10.040;2023-09-19T04:59:47;67305.53;;;15.75
74043;BMP280;62384;53.600;10.040;2023-09-19T05:02:12;67442.59;;;15.67
74043;BMP280;62384;53.600;10.040;2023-09-19T05:04:38;67133.44;;;15.66
74043;BMP280;62384;53.600;10.040;2023-09-19T05:07:04;67204.50;;;15.54
74043;BMP280;62384;53.600;10.040;2023-09-19T05:09:29;66935.47;;;15.66
74043;BMP280;62384;53.600;10.040;2023-09-19T05:12:11;67025.16;;;15.62
74043;BMP280;62384;53.600;10.040;2023-09-19T05:14:42;66104.41;;;15.53
74043;BMP280;62384;53.600;10.040;2023-09-19T05:17:08;66236.13;;;15.56
74043;BMP280;62384;53.600;10.040;2023-09-19T05:19:33;65414.00;;;15.49
74043;BMP280;62384;53.600;10.040;2023-09-19T05:22:00;65745.66;;;15.52
74043;BMP280;62384;53.600;10.040;2023-09-19T05:24:28;65615.91;;;15.51
74043;BMP280;62384;53.600;10.040;2023-09-19T05:26:57;64822.09;;;15.51
74043;BMP280;62384;53.600;10.040;2023-09-19T05:29:23;64512.41;;;15.48
74043;BMP280;62384;53.600;10.040;2023-09-19T05:31:48;63932.38;;;15.42
74043;BMP280;62384;53.600;10.040;2023-09-19T05:34:14;63973.72;;;15.41
74043;BMP280;62384;53.600;10.040;2023-09-19T05:36:40;64374.72;;;15.47
74043;BMP280;62384;53.600;10.040;2023-09-19T05:39:08;64419.06;;;15.51
74043;BMP280;62384;53.600;10.040;2023-09-19T05:41:37;64506.13;;;15.47
74043;BMP280;62384;53.600;10.040;2023-09-19T05:44:08;64675.09;;;15.51
74043;BMP280;62384;53.600;10.040;2023-09-19T05:46:33;64737.47;;;15.43
74043;BMP280;62384;53.600;10.040;2023-09-19T05:48:58;65583.06;;;15.53
74043;BMP280;62384;53.600;10.040;2023-09-19T05:51:26;66693.38;;;15.51
74043;BMP280;62384;53.600;10.040;2023-09-19T05:53:54;67009.47;;;15.51
74043;BMP280;62384;53.600;10.040;2023-09-19T05:56:28;67497.97;;;15.64
74043;BMP280;62384;53.600;10.040;2023-09-19T05:58:53;68127.16;;;15.67
74043;BMP280;62384;53.600;10.040;2023-09-19T06:01:21;68247.06;;;15.66
74043;BMP280;62384;53.600;10.040;2023-09-19T06:03:49;68587.84;;;15.70
74043;BMP280;62384;53.600;10.040;2023-09-19T06:06:16;68903.94;;;15.75
74043;BMP280;62384;53.600;10.040;2023-09-19T06:08:41;68968.47;;;15.81
74043;BMP280;62384;53.600;10.040;2023-09-19T06:11:10;69113.44;;;15.84
74043;BMP280;62384;53.600;10.040;2023-09-19T06:13:36;69050.69;;;15.85
74043;BMP280;62384;53.600;10.040;2023-09-19T06:16:01;69394.94;;;16.00
74043;BMP280;62384;53.600;10.040;2023-09-19T06:18:32;69294.31;;;15.98
74043;BMP280;62384;53.600;10.040;2023-09-19T06:20:59;68911.00;;;16.03
74043;BMP280;62384;53.600;10.040;2023-09-19T06:23:25;69148.00;;;15.99
74043;BMP280;62384;53.600;10.040;2023-09-19T06:25:54;69778.88;;;16.06
74043;BMP280;62384;53.600;10.040;2023-09-19T06:28:19;69712.72;;;16.12
74043;BMP280;62384;53.600;10.040;2023-09-19T06:30:49;69501.03;;;16.12
74043;BMP280;62384;53.600;10.040;2023-09-19T06:33:14;70319.44;;;16.13
74043;BMP280;62384;53.600;10.040;2023-09-19T06:35:42;70158.09;;;16.12
74043;BMP280;62384;53.600;10.040;2023-09-19T06:38:09;69719.00;;;16.02
74043;BMP280;62384;53.600;10.040;2023-09-19T06:40:38;69590.69;;;16.08
74043;BMP280;62384;53.600;10.040;2023-09-19T06:43:04;70066.03;;;16.09
74043;BMP280;62384;53.600;10.040;2023-09-19T06:45:30;70230.47;;;16.12
74043;BMP280;62384;53.600;10.040;2023-09-19T06:48:00;70214.72;;;16.18
74043;BMP280;62384;53.600;10.040;2023-09-19T06:50:27;70641.91;;;16.22
74043;BMP280;62384;53.600;10.040;2023-09-19T06:53:00;70851.38;;;16.30
74043;BMP280;62384;53.600;10.040;2023-09-19T06:55:26;70627.84;;;16.26
74043;BMP280;62384;53.600;10.040;2023-09-19T06:58:01;70374.03;;;16.32
74043;BMP280;62384;53.600;10.040;2023-09-19T07:00:26;70430.78;;;16.35
74043;BMP280;62384;53.600;10.040;2023-09-19T07:03:01;70562.09;;;16.38
74043;BMP280;62384;53.600;10.040;2023-09-19T07:05:39;70750.88;;;16.39
74043;BMP280;62384;53.600;10.040;2023-09-19T07:08:06;70623.75;;;16.38
74043;BMP280;62384;53.600;10.040;2023-09-19T07:10:33;70569.47;;;16.42
74043;BMP280;62384;53.600;10.040;2023-09-19T07:13:01;70415.31;;;16.33
74043;BMP280;62384;53.600;10.040;2023-09-19T07:15:30;70319.66;;;16.39
74043;BMP280;62384;53.600;10.040;2023-09-19T07:18:02;70353.97;;;16.39
74043;BMP280;62384;53.600;10.040;2023-09-19T07:20:27;70215.78;;;16.50
74043;BMP280;62384;53.600;10.040;2023-09-19T07:22:58;70441.09;;;16.48
74043;BMP280;62384;53.600;10.040;2023-09-19T07:25:42;70199.22;;;16.63
74043;BMP280;62384;53.600;10.040;2023-09-19T07:28:08;70300.03;;;16.64
74043;BMP280;62384;53.600;10.040;2023-09-19T07:30:38;70188.84;;;16.53
74043;BMP280;62384;53.600;10.040;2023-09-19T07:33:10;70693.75;;;16.48
74043;BMP280;62384;53.600;10.040;2023-09-19T07:35:38;70187.72;;;16.54
74043;BMP280;62384;53.600;10.040;2023-09-19T07:38:11;70320.28;;;16.53
74043;BMP280;62384;53.600;10.040;2023-09-19T07:40:41;70459.50;;;16.60
74043;BMP280;62384;53.600;10.040;2023-09-19T07:43:07;70482.50;;;16.62
74043;BMP280;62384;53.600;10.040;2023-09-19T07:45:34;70383.50;;;16.54
74043;BMP280;62384;53.600;10.040;2023-09-19T07:47:59;70317.59;;;16.53
74043;BMP280;62384;53.600;10.040;2023-09-19T07:50:30;68762.69;;;16.40
74043;BMP280;62384;53.600;10.040;2023-09-19T07:52:55;67212.75;;;16.30
74043;BMP280;62384;53.600;10.040;2023-09-19T07:55:22;65207.94;;;16.08
74043;BMP280;62384;53.600;10.040;2023-09-19T07:57:52;65050.44;;;15.91
74043;BMP280;62384;53.600;10.040;2023-09-19T08:00:29;39396.63;;;15.50
74043;BMP280;62384;53.600;10.040;2023-09-19T08:02:55;12070.69;;;15.07
74043;BMP280;62384;53.600;10.040;2023-09-19T08:05:22;6709.47;;;15.03
74043;BMP280;62384;53.600;10.040;2023-09-19T08:07:48;4033.16;;;14.99
74043;BMP280;62384;53.600;10.040;2023-09-19T08:10:16;-3640.88;;;14.65
74043;BMP280;62384;53.600;10.040;2023-09-19T08:12:44;-6639.81;;;14.72
74043;BMP280;62384;53.600;10.040;2023-09-19T08:15:16;-3642.56;;;14.75
74043;BMP280;62384;53.600;10.040;2023-09-19T08:17:42;-2643.69;;;14.83
74043;BMP280;62384;53.600;10.040;2023-09-19T08:20:09;692.50;;;14.89
74043;BMP280;62384;53.600;10.040;2023-09-19T08:22:49;2695.22;;;15.11
74043;BMP280;62384;53.600;10.040;2023-09-19T08:25:16;355.59;;;15.18
74043;BMP280;62384;53.600;10.040;2023-09-19T08:27:47;1357.16;;;15.26
74043;BMP280;62384;53.600;10.040;2023-09-19T08:30:19;3696.91;;;15.39
74043;BMP280;62384;53.600;10.040;2023-09-19T08:32:48;11737.84;;;15.38
74043;BMP280;62384;53.600;10.040;2023-09-19T08:35:13;17448.81;;;15.44
74043;BMP280;62384;53.600;10.040;2023-09-19T08:37:39;12745.44;;;15.47
74043;BMP280;62384;53.600;10.040;2023-09-19T08:40:04;20478.19;;;15.50
74043;BMP280;62384;53.600;10.040;2023-09-19T08:43:00;24188.72;;;15.66
74043;BMP280;62384;53.600;10.040;2023-09-19T08:45:26;26888.09;;;15.67
74043;BMP280;62384;53.600;10.040;2023-09-19T08:48:28;31281.69;;;15.72
74043;BMP280;62384;53.600;10.040;2023-09-19T08:51:03;33986.16;;;15.68
74043;BMP280;62384;53.600;10.040;2023-09-19T08:54:21;36697.56;;;15.74
74043;BMP280;62384;53.600;10.040;2023-09-19T08:56:47;46869.84;;;15.91
74043;BMP280;62384;53.600;10.040;2023-09-19T08:59:14;51264.97;;;15.98
74043;BMP280;62384;53.600;10.040;2023-09-19T09:01:40;52976.91;;;16.01
74043;BMP280;62384;53.600;10.040;2023-09-19T09:04:08;54582.75;;;16.07
74043;BMP280;62384;53.600;10.040;2023-09-19T09:06:35;56120.59;;;15.90
74043;BMP280;62384;53.600;10.040;2023-09-19T09:09:01;56232.81;;;16.04
74043;BMP280;62384;53.600;10.040;2023-09-19T09:11:27;59440.66;;;16.08
74043;BMP280;62384;53.600;10.040;2023-09-19T09:13:53;60410.66;;;16.21
74043;BMP280;62384;53.600;10.040;2023-09-19T09:16:18;60521.03;;;16.25
74043;BMP280;62384;53.600;10.040;2023-09-19T09:18:44;60828.59;;;16.38
74043;BMP280;62384;53.600;10.040;2023-09-19T09:21:10;61649.16;;;16.38
74043;BMP280;62384;53.600;10.040;2023-09-19T09:23:36;63266.16;;;16.43
74043;BMP280;62384;53.600;10.040;2023-09-19T09:26:01;65619.75;;;16.50
74043;BMP280;62384;53.600;10.040;2023-09-19T09:28:31;66483.47;;;16.57
74043;BMP280;62384;53.600;10.040;2023-09-19T09:30:59;68632.16;;;16.62
74043;BMP280;62384;53.600;10.040;2023-09-19T09:33:35;68433.84;;;16.78
74043;BMP280;62384;53.600;10.040;2023-09-19T09:36:02;70080.97;;;16.83
74043;BMP280;62384;53.600;10.040;2023-09-19T09:38:47;70929.50;;;17.05
74043;BMP280;62384;53.600;10.040;2023-09-19T09:41:15;71647.75;;;17.26
74043;BMP280;62384;53.600;10.040;2023-09-19T09:43:52;72447.88;;;17.36
74043;BMP280;62384;53.600;10.040;2023-09-19T09:46:19;72508.56;;;17.62
74043;BMP280;62384;53.600;10.040;2023-09-19T09:52:10;74463.00;;;18.03
74043;BMP280;62384;53.600;10.040;2023-09-19T09:55:02;74897.41;;;18.14
74043;BMP280;62384;53.600;10.040;2023-09-19T09:57:34;74924.59;;;18.36
74043;BMP280;62384;53.600;10.040;2023-09-19T10:00:06;75253.91;;;18.51
74043;BMP280;62384;53.600;10.040;2023-09-19T10:02:37;75169.16;;;18.47
74043;BMP280;62384;53.600;10.040;2023-09-19T10:05:13;74613.38;;;18.25
74043;BMP280;62384;53.600;10.040;2023-09-19T10:07:52;75481.31;;;18.61
74043;BMP280;62384;53.600;10.040;2023-09-19T10:10:49;75712.97;;;18.80
74043;BMP280;62384;53.600;10.040;2023-09-19T10:13:19;75493.72;;;18.87
74043;BMP280;62384;53.600;10.040;2023-09-19T10:15:51;75492.16;;;18.88
74043;BMP280;62384;53.600;10.040;2023-09-19T10:18:27;76217.38;;;18.61
74043;BMP280;62384;53.600;10.040;2023-09-19T10:20:55;76636.38;;;18.69
74043;BMP280;62384;53.600;10.040;2023-09-19T10:23:21;76581.16;;;18.66
74043;BMP280;62384;53.600;10.040;2023-09-19T10:25:49;76987.09;;;18.86
74043;BMP280;62384;53.600;10.040;2023-09-19T10:28:19;77050.03;;;19.15
74043;BMP280;62384;53.600;10.040;2023-09-19T10:30:59;77158.47;;;19.06
74043;BMP280;62384;53.600;10.040;2023-09-19T10:33:25;76972.94;;;18.76
74043;BMP280;62384;53.600;10.040;2023-09-19T10:35:51;76765.00;;;18.64
74043;BMP280;62384;53.600;10.040;2023-09-19T10:38:25;76706.84;;;18.48
74043;BMP280;62384;53.600;10.040;2023-09-19T10:40:55;76759.03;;;18.47
74043;BMP280;62384;53.600;10.040;2023-09-19T10:43:32;76954.22;;;18.95
74043;BMP280;62384;53.600;10.040;2023-09-19T10:46:02;77159.75;;;19.17
74043;BMP280;62384;53.600;10.040;2023-09-19T10:48:30;77141.31;;;18.84
74043;BMP280;62384;53.600;10.040;2023-09-19T10:51:02;77181.50;;;18.96
74043;BMP280;62384;53.600;10.040;2023-09-19T10:53:40;77230.66;;;18.96
74043;BMP280;62384;53.600;10.040;2023-09-19T10:56:08;77261.47;;;19.28
74043;BMP280;62384;53.600;10.040;2023-09-19T10:58:40;77352.16;;;19.27
74043;BMP280;62384;53.600;10.040;2023-09-19T11:01:07;77224.50;;;18.93
74043;BMP280;62384;53.600;10.040;2023-09-19T11:03:41;77135.06;;;18.71
74043;BMP280;62384;53.600;10.040;2023-09-19T11:06:17;77188.38;;;18.78
74043;BMP280;62384;53.600;10.040;2023-09-19T11:09:00;77124.84;;;18.96
74043;BMP280;62384;53.600;10.040;2023-09-19T11:11:47;77131.16;;;19.01
74043;BMP280;62384;53.600;10.040;2023-09-19T11:25:42;76975.19;;;18.45
74043;BMP280;62384;53.600;10.040;2023-09-19T11:30:52;77254.84;;;18.79
74043;BMP280;62384;53.600;10.040;2023-09-19T11:33:26;77356.84;;;19.17
74043;BMP280;62384;53.600;10.040;2023-09-19T11:36:10;77335.38;;;18.89
74043;BMP280;62384;53.600;10.040;2023-09-19T11:43:51;77438.19;;;19.22
74043;BMP280;62384;53.600;10.040;2023-09-19T11:46:17;77426.00;;;19.32
74043;BMP280;62384;53.600;10.040;2023-09-19T11:48:47;77429.31;;;19.19
74043;BMP280;62384;53.600;10.040;2023-09-19T11:51:20;77407.09;;;18.95
74043;BMP280;62384;53.600;10.040;2023-09-19T11:53:57;77372.81;;;18.83
74043;BMP280;62384;53.600;10.040;2023-09-19T11:56:28;77413.03;;;18.95
74043;BMP280;62384;53.600;10.040;2023-09-19T11:59:00;77478.53;;;19.12
74043;BMP280;62384;53.600;10.040;2023-09-19T12:01:37;77454.38;;;19.29
74043;BMP280;62384;53.600;10.040;2023-09-19T12:04:11;77457.13;;;19.15
74043;BMP280;62384;53.600;10.040;2023-09-19T12:06:36;77424.56;;;19.05
74043;BMP280;62384;53.600;10.040;2023-09-19T12:09:04;77449.41;;;19.20
74043;BMP280;62384;53.600;10.040;2023-09-19T12:11:32;77455.81;;;19.11
74043;BMP280;62384;53.600;10.040;2023-09-19T12:13:59;77443.25;;;19.10
74043;BMP280;62384;53.600;10.040;2023-09-19T12:19:55;77431.75;;;19.00
74043;BMP280;62384;53.600;10.040;2023-09-19T12:22:21;77454.78;;;19.20
74043;BMP280;62384;53.600;10.040;2023-09-19T12:24:47;77476.16;;;19.31
74043;BMP280;62384;53.600;10.040;2023-09-19T12:27:22;77496.91;;;19.49
74043;BMP280;62384;53.600;10.040;2023-09-19T12:29:48;77536.53;;;19.37
74043;BMP280;62384;53.600;10.040;2023-09-19T12:32:17;77491.06;;;19.14
74043;BMP280;62384;53.600;10.040;2023-09-19T12:38:06;77565.06;;;19.43
74043;BMP280;62384;53.600;10.040;2023-09-19T12:40:35;77551.53;;;19.57
74043;BMP280;62384;53.600;10.040;2023-09-19T12:43:03;77507.22;;;19.28
74043;BMP280;62384;53.600;10.040;2023-09-19T12:49:15;77504.16;;;19.23
74043;BMP280;62384;53.600;10.040;2023-09-19T12:51:42;77548.72;;;19.26
74043;BMP280;62384;53.600;10.040;2023-09-19T12:54:09;77532.31;;;19.31
74043;BMP280;62384;53.600;10.040;2023-09-19T12:56:42;77527.47;;;19.31
74043;BMP280;62384;53.600;10.040;2023-09-19T12:59:14;77500.28;;;19.29
74043;BMP280;62384;53.600;10.040;2023-09-19T13:01:41;77514.53;;;19.32
74043;BMP280;62384;53.600;10.040;2023-09-19T13:04:21;77577.22;;;19.39
74043;BMP280;62384;53.600;10.040;2023-09-19T13:07:00;77543.50;;;19.29
74043;BMP280;62384;53.600;10.040;2023-09-19T13:09:27;77568.19;;;19.34
74043;BMP280;62384;53.600;10.040;2023-09-19T13:12:35;77580.84;;;19.52
74043;BMP280;62384;53.600;10.040;2023-09-19T13:15:15;77645.03;;;19.79
74043;BMP280;62384;53.600;10.040;2023-09-19T13:17:49;77648.50;;;19.90
74043;BMP280;62384;53.600;10.040;2023-09-19T13:20:27;77640.78;;;19.80
74043;BMP280;62384;53.600;10.040;2023-09-19T13:22:56;77646.03;;;19.71
74043;BMP280;62384;53.600;10.040;2023-09-19T13:25:25;77639.84;;;19.75
74043;BMP280;62384;53.600;10.040;2023-09-19T13:27:57;77644.69;;;19.67
74043;BMP280;62384;53.600;10.040;2023-09-19T13:30:28;77680.38;;;19.75
74043;BMP280;62384;53.600;10.040;2023-09-19T13:33:11;77679.94;;;19.98
74043;BMP280;62384;53.600;10.040;2023-09-19T13:35:38;77641.78;;;19.79
74043;BMP280;62384;53.600;10.040;2023-09-19T13:38:05;77671.28;;;19.91
74043;BMP280;62384;53.600;10.040;2023-09-19T13:40:32;77690.75;;;19.98
74043;BMP280;62384;53.600;10.040;2023-09-19T13:43:00;77662.91;;;20.16
74043;BMP280;62384;53.600;10.040;2023-09-19T13:45:25;77710.38;;;20.29
74043;BMP280;62384;53.600;10.040;2023-09-19T13:47:55;77662.22;;;19.85
74043;BMP280;62384;53.600;10.040;2023-09-19T13:50:21;77668.38;;;19.88
74043;BMP280;62384;53.600;10.040;2023-09-19T13:52:49;77737.03;;;20.24
74043;BMP280;62384;53.600;10.040;2023-09-19T13:55:19;77741.31;;;20.23
74043;BMP280;62384;53.600;10.040;2023-09-19T13:57:50;77736.88;;;20.15
74043;BMP280;62384;53.600;10.040;2023-09-19T14:00:17;77666.81;;;20.03
74043;BMP280;62384;53.600;10.040;2023-09-19T14:02:43;77699.00;;;20.15
74043;BMP280;62384;53.600;10.040;2023-09-19T14:05:11;77622.63;;;19.91
74043;BMP280;62384;53.600;10.040;2023-09-19T14:07:40;77659.72;;;19.80
74043;BMP280;62384;53.600;10.040;2023-09-19T14:10:06;77612.50;;;19.56
74043;BMP280;62384;53.600;10.040;2023-09-19T14:12:35;77656.47;;;19.73
74043;BMP280;62384;53.600;10.040;2023-09-19T14:15:01;77688.09;;;19.84
74043;BMP280;62384;53.600;10.040;2023-09-19T14:17:27;77698.25;;;20.05
74043;BMP280;62384;53.600;10.040;2023-09-19T14:19:58;77691.38;;;19.85
74043;BMP280;62384;53.600;10.040;2023-09-19T14:22:28;77682.28;;;20.00
74043;BMP280;62384;53.600;10.040;2023-09-19T14:24:53;77667.78;;;19.95
74043;BMP280;62384;53.600;10.040;2023-09-19T14:27:19;77638.88;;;19.84
74043;BMP280;62384;53.600;10.040;2023-09-19T14:29:48;77683.47;;;19.80
74043;BMP280;62384;53.600;10.040;2023-09-19T14:32:16;77668.78;;;19.86
74043;BMP280;62384;53.600;10.040;2023-09-19T14:34:41;77658.34;;;19.84
74043;BMP280;62384;53.600;10.040;2023-09-19T14:37:11;77656.03;;;19.89
74043;BMP280;62384;53.600;10.040;2023-09-19T14:39:37;77666.44;;;19.91
74043;BMP280;62384;53.600;10.040;2023-09-19T14:42:08;77678.81;;;19.90
74043;BMP280;62384;53.600;10.040;2023-09-19T14:44:36;77680.94;;;19.90
74043;BMP280;62384;53.600;10.040;2023-09-19T14:47:05;77671.50;;;19.86
74043;BMP280;62384;53.600;10.040;2023-09-19T14:49:35;77643.31;;;19.78
74043;BMP280;62384;53.600;10.040;2023-09-19T14:52:03;77641.78;;;19.79
74043;BMP280;62384;53.600;10.040;2023-09-19T14:54:29;77626.91;;;19.75